Time;durP1;ratioP1;P1;durP2;ratioP2;P2;SDS_P1;SDS_P2;PMS_P1;PMS_P2;Temp;Humidity;BMP_temperature;BMP_pressure;BME280_temperature;BME280_humidity;BME280_pressure;Samples;Min_cycle;Max_cycle;Signal;HPM_P1;HPM_P2
2022/02/17 00:00:45;;;;;;;0.10;0.10;;;12.50;99.90;;;;;;1885253;74;21089;-80
2022/02/17 00:03:13;;;;;;;0.10;0.10;;;12.70;99.90;;;;;;1889913;75;21109;-81
2022/02/17 00:05:40;;;;;;;0.10;0.10;;;12.70;99.90;;;;;;1883360;74;21144;-81
2022/02/17 00:08:08;;;;;;;0.20;0.20;;;12.90;99.90;;;;;;1897202;74;21058;-78
2022/02/17 00:10:35;;;;;;;1.10;0.10;;;12.90;99.90;;;;;;1893980;75;21147;-81
2022/02/17 00:13:03;;;;;;;0.45;0.10;;;13.00;99.90;;;;;;1888984;74;21097;-79
2022/02/17 00:15:31;;;;;;;0.10;0.10;;;13.00;99.90;;;;;;1877234;75;21210;-81
2022/02/17 00:17:59;;;;;;;0.10;0.10;;;13.10;99.90;;;;;;1904148;75;21041;-80
2022/02/17 00:20:26;;;;;;;0.23;0.10;;;13.20;99.90;;;;;;1862141;75;21054;-79
2022/02/17 00:22:53;;;;;;;0.30;0.15;;;13.20;99.90;;;;;;1879553;75;21493;-80
2022/02/17 00:25:21;;;;;;;0.10;0.10;;;13.30;99.90;;;;;;1892255;75;21027;-80
2022/02/17 00:27:48;;;;;;;0.05;0.05;;;13.30;99.90;;;;;;1875686;74;21151;-80
2022/02/17 00:30:20;;;;;;;0.10;0.10;;;13.30;99.90;;;;;;1885018;74;21077;-80
2022/02/17 00:32:44;;;;;;;0.15;0.15;;;13.30;99.90;;;;;;1874459;75;21171;-80
2022/02/17 00:35:13;;;;;;;0.10;0.10;;;13.40;99.90;;;;;;1884473;75;21430;-80
2022/02/17 00:37:40;;;;;;;0.33;0.13;;;13.30;99.90;;;;;;1890269;75;21226;-81
2022/02/17 00:40:07;;;;;;;0.85;0.17;;;13.40;99.90;;;;;;1890716;74;21179;-80
2022/02/17 00:42:35;;;;;;;0.10;0.10;;;13.40;99.90;;;;;;1894168;75;21089;-80
2022/02/17 00:45:03;;;;;;;0.65;0.15;;;13.40;99.90;;;;;;1899252;75;21105;-80
2022/02/17 00:47:30;;;;;;;0.10;0.10;;;13.40;99.90;;;;;;1876071;74;21506;-81
2022/02/17 00:49:58;;;;;;;0.10;0.10;;;13.40;99.90;;;;;;1900875;75;21566;-78
2022/02/17 00:52:26;;;;;;;0.37;0.10;;;13.40;99.90;;;;;;1861074;74;21082;-79
2022/02/17 00:54:53;;;;;;;0.85;0.10;;;13.50;99.90;;;;;;1891465;75;21172;-80
2022/02/17 00:57:21;;;;;;;0.75;0.10;;;13.60;99.90;;;;;;1891872;75;21073;-80
2022/02/17 00:59:48;;;;;;;0.85;0.10;;;13.60;99.90;;;;;;1888030;74;21163;-81
2022/02/17 01:02:15;;;;;;;1.22;0.10;;;13.60;99.90;;;;;;1879383;74;21459;-81
2022/02/17 01:04:43;;;;;;;0.20;0.10;;;13.50;99.90;;;;;;1891095;75;21089;-81
2022/02/17 01:07:10;;;;;;;0.72;0.20;;;13.50;99.90;;;;;;1890436;74;21218;-81
2022/02/17 01:09:37;;;;;;;0.10;0.10;;;13.50;99.90;;;;;;1901070;75;21092;-81
2022/02/17 01:12:06;;;;;;;0.20;0.20;;;13.50;99.90;;;;;;1897670;75;21258;-80
2022/02/17 01:14:35;;;;;;;0.20;0.10;;;13.50;99.90;;;;;;1884299;75;21062;-80
2022/02/17 01:17:02;;;;;;;0.85;0.15;;;13.40;99.90;;;;;;1883570;74;21137;-80
2022/02/17 01:19:29;;;;;;;0.10;0.10;;;13.50;99.90;;;;;;1886725;75;21497;-80
2022/02/17 01:21:56;;;;;;;0.10;0.10;;;13.40;99.90;;;;;;1879713;74;21090;-79
2022/02/17 01:24:24;;;;;;;0.00;0.00;;;13.20;99.90;;;;;;1887127;76;21571;-80
2022/02/17 01:26:51;;;;;;;0.10;0.10;;;13.00;99.90;;;;;;1895261;76;21148;-80
2022/02/17 01:29:18;;;;;;;0.42;0.20;;;13.00;99.90;;;;;;1889847;75;21081;-79
2022/02/17 01:31:46;;;;;;;0.00;0.00;;;12.90;99.90;;;;;;1884529;74;21082;-80
2022/02/17 01:34:13;;;;;;;0.15;0.10;;;12.90;99.90;;;;;;1876438;75;21163;-80
2022/02/17 01:36:41;;;;;;;0.00;0.00;;;12.90;99.90;;;;;;1884884;75;21097;-80
2022/02/17 01:39:08;;;;;;;0.10;0.10;;;12.90;99.90;;;;;;1887272;74;21050;-79
2022/02/17 01:41:35;;;;;;;0.30;0.10;;;12.90;99.90;;;;;;1886489;75;21248;-79
2022/02/17 01:44:03;;;;;;;0.40;0.15;;;13.00;99.90;;;;;;1882563;75;21097;-78
2022/02/17 01:46:35;;;;;;;0.03;0.00;;;13.10;99.90;;;;;;1887783;74;21556;-79
2022/02/17 01:49:03;;;;;;;0.10;0.10;;;13.20;99.90;;;;;;1888444;75;21441;-79
2022/02/17 01:51:30;;;;;;;0.10;0.10;;;13.10;99.90;;;;;;1897384;74;21085;-78
2022/02/17 01:53:59;;;;;;;0.08;0.08;;;13.00;99.90;;;;;;1882257;74;21631;-79
2022/02/17 01:56:27;;;;;;;0.10;0.10;;;12.90;99.90;;;;;;1901066;75;21034;-80
2022/02/17 01:58:54;;;;;;;0.10;0.10;;;13.00;99.90;;;;;;1884206;74;21097;-80
2022/02/17 02:01:24;;;;;;;0.10;0.10;;;13.00;99.90;;;;;;1885217;74;21081;-80
2022/02/17 02:03:52;;;;;;;0.30;0.10;;;13.00;99.90;;;;;;1887439;74;21143;-80
2022/02/17 02:06:19;;;;;;;0.10;0.10;;;12.90;99.90;;;;;;1883042;74;21143;-79
2022/02/17 02:08:46;;;;;;;2.87;0.10;;;12.80;99.90;;;;;;1878951;74;21047;-81
2022/02/17 02:11:15;;;;;;;0.10;0.10;;;12.80;99.90;;;;;;1890022;75;21142;-80
2022/02/17 02:13:42;;;;;;;0.62;0.10;;;12.80;99.90;;;;;;1885483;74;21138;-81
2022/02/17 02:16:10;;;;;;;0.42;0.10;;;12.70;99.90;;;;;;1874813;74;21181;-81
2022/02/17 02:18:39;;;;;;;0.85;0.20;;;12.70;99.90;;;;;;1891139;74;21559;-81
2022/02/17 02:21:06;;;;;;;0.10;0.10;;;12.70;99.90;;;;;;1888705;76;21094;-80
2022/02/17 02:23:34;;;;;;;0.57;0.20;;;12.60;99.90;;;;;;1882592;74;21089;-79
2022/02/17 02:26:01;;;;;;;1.17;0.10;;;12.60;99.90;;;;;;1905612;75;21163;-79
2022/02/17 02:28:30;;;;;;;0.10;0.10;;;12.60;99.90;;;;;;1895458;75;21046;-79
2022/02/17 02:31:18;;;;;;;0.10;0.10;;;12.60;99.90;;;;;;1905648;75;21226;-81
2022/02/17 02:33:45;;;;;;;0.13;0.13;;;12.60;99.90;;;;;;1953917;73;21086;-81
2022/02/17 02:36:12;;;;;;;0.28;0.13;;;12.60;99.90;;;;;;1952821;73;21121;-82
2022/02/17 02:38:39;;;;;;;1.47;0.10;;;12.50;99.90;;;;;;1957433;73;21073;-82
2022/02/17 02:41:08;;;;;;;0.10;0.10;;;12.50;99.90;;;;;;1959043;73;21364;-81
2022/02/17 02:43:36;;;;;;;0.13;0.13;;;12.40;99.90;;;;;;1952476;73;21115;-80
2022/02/17 02:46:04;;;;;;;0.10;0.10;;;12.30;99.90;;;;;;1952864;73;21074;-79
2022/02/17 02:48:31;;;;;;;0.10;0.10;;;12.30;99.90;;;;;;1952602;73;21184;-81
2022/02/17 02:50:59;;;;;;;0.10;0.10;;;12.30;99.90;;;;;;1952712;73;21177;-80
2022/02/17 02:53:26;;;;;;;0.10;0.10;;;12.20;99.90;;;;;;1952874;73;21080;-82
2022/02/17 02:55:53;;;;;;;1.12;0.20;;;12.20;99.90;;;;;;1951210;73;21137;-81
2022/02/17 02:58:21;;;;;;;0.25;0.20;;;12.10;99.90;;;;;;1953540;73;21466;-83
2022/02/17 03:00:49;;;;;;;1.40;0.33;;;12.10;99.90;;;;;;1959681;73;21070;-82
2022/02/17 03:03:17;;;;;;;0.10;0.10;;;12.10;99.90;;;;;;1953633;73;21189;-80
2022/02/17 03:05:45;;;;;;;0.15;0.15;;;12.00;99.90;;;;;;1952270;73;21077;-82
2022/02/17 03:08:12;;;;;;;0.13;0.13;;;12.00;99.90;;;;;;1952141;73;21128;-80
2022/02/17 03:10:40;;;;;;;0.10;0.10;;;12.00;99.90;;;;;;1953070;73;21022;-82
2022/02/17 03:13:07;;;;;;;0.10;0.10;;;12.00;99.90;;;;;;1952964;73;21447;-82
2022/02/17 03:15:34;;;;;;;0.08;0.08;;;12.00;99.90;;;;;;1952323;73;21236;-80
2022/02/17 03:18:02;;;;;;;0.05;0.05;;;12.10;99.90;;;;;;1952820;73;21026;-79
2022/02/17 03:20:29;;;;;;;0.10;0.10;;;12.10;99.90;;;;;;1952915;73;21462;-80
2022/02/17 03:22:56;;;;;;;1.32;0.10;;;12.20;99.90;;;;;;1951176;73;21031;-82
2022/02/17 03:25:24;;;;;;;0.10;0.10;;;12.20;99.90;;;;;;1951323;73;21070;-81
2022/02/17 03:27:51;;;;;;;0.57;0.20;;;12.10;99.90;;;;;;1951665;71;21062;-80
2022/02/17 03:30:18;;;;;;;0.03;0.03;;;12.10;99.90;;;;;;1951807;73;21035;-80
2022/02/17 03:32:45;;;;;;;0.10;0.10;;;12.20;99.90;;;;;;1951259;73;21062;-81
2022/02/17 03:35:13;;;;;;;0.33;0.25;;;12.10;99.90;;;;;;1952846;73;21065;-82
2022/02/17 03:37:40;;;;;;;0.10;0.10;;;12.10;99.90;;;;;;1952217;73;21139;-80
2022/02/17 03:40:08;;;;;;;0.10;0.10;;;12.20;99.90;;;;;;1951489;73;21077;-79
2022/02/17 03:42:35;;;;;;;0.13;0.13;;;12.20;99.90;;;;;;1951853;73;21069;-82
2022/02/17 03:45:03;;;;;;;0.10;0.10;;;12.20;99.90;;;;;;1955334;73;21070;-78
2022/02/17 03:47:30;;;;;;;0.10;0.10;;;12.30;99.90;;;;;;1950959;73;21152;-80
2022/02/17 03:49:57;;;;;;;0.10;0.10;;;12.30;99.90;;;;;;1952235;73;21123;-80
2022/02/17 03:52:25;;;;;;;0.25;0.10;;;12.20;99.90;;;;;;1951649;73;21043;-80
2022/02/17 03:54:52;;;;;;;0.42;0.10;;;12.30;99.90;;;;;;1952643;73;21026;-81
2022/02/17 03:57:19;;;;;;;0.10;0.10;;;12.30;99.90;;;;;;1951438;73;21532;-79
2022/02/17 03:59:47;;;;;;;0.30;0.00;;;12.20;99.90;;;;;;1953891;73;21063;-82
2022/02/17 04:02:14;;;;;;;0.60;0.10;;;12.20;99.90;;;;;;1950576;73;21204;-80
2022/02/17 04:04:41;;;;;;;0.10;0.10;;;12.30;99.90;;;;;;1950990;73;21140;-81
2022/02/17 04:07:08;;;;;;;0.00;0.00;;;12.20;99.90;;;;;;1951867;73;21066;-79
2022/02/17 04:09:36;;;;;;;0.10;0.10;;;12.30;99.90;;;;;;1950709;73;21124;-80
2022/02/17 04:12:05;;;;;;;0.03;0.03;;;12.30;99.90;;;;;;1951656;73;21137;-81
2022/02/17 04:14:33;;;;;;;0.10;0.10;;;12.40;99.90;;;;;;1951356;73;21105;-82
2022/02/17 04:17:01;;;;;;;0.10;0.10;;;12.40;99.90;;;;;;1952214;73;21246;-81
2022/02/17 04:19:30;;;;;;;0.82;0.10;;;12.40;99.90;;;;;;1952115;73;21062;-79
2022/02/17 04:21:57;;;;;;;0.00;0.00;;;12.40;99.90;;;;;;1950249;72;21136;-80
2022/02/17 04:24:24;;;;;;;0.15;0.15;;;12.40;99.90;;;;;;1950993;73;21192;-80
2022/02/17 04:26:52;;;;;;;0.55;0.20;;;12.30;99.90;;;;;;1950350;73;21078;-81
2022/02/17 04:29:19;;;;;;;0.10;0.10;;;12.40;99.90;;;;;;1950497;73;21532;-81
2022/02/17 04:31:47;;;;;;;0.10;0.10;;;12.40;99.90;;;;;;1950530;73;21043;-80
2022/02/17 04:34:15;;;;;;;0.10;0.10;;;12.40;99.90;;;;;;1926433;73;21197;-79
2022/02/17 04:36:42;;;;;;;0.20;0.20;;;12.30;99.90;;;;;;1950796;73;21454;-79
2022/02/17 04:39:09;;;;;;;0.20;0.20;;;12.40;99.90;;;;;;1954051;73;21556;-79
2022/02/17 04:44:22;;;;;;;0.78;0.25;;;12.40;99.90;;;;;;1951755;73;21714;-79
2022/02/17 04:46:49;;;;;;;0.85;0.20;;;12.30;99.90;;;;;;1950269;73;21070;-81
2022/02/17 04:49:17;;;;;;;0.20;0.15;;;12.20;99.90;;;;;;1951750;73;21435;-79
2022/02/17 04:51:44;;;;;;;0.00;0.00;;;12.20;99.90;;;;;;1951533;73;21110;-78
2022/02/17 04:54:11;;;;;;;0.10;0.10;;;12.20;99.90;;;;;;1951848;73;21062;-79
2022/02/17 04:56:39;;;;;;;0.10;0.10;;;12.30;99.90;;;;;;1952405;73;21039;-79
2022/02/17 04:59:06;;;;;;;0.20;0.20;;;12.40;99.90;;;;;;1952437;73;21034;-78
2022/02/17 05:01:33;;;;;;;0.30;0.10;;;12.30;99.90;;;;;;1952311;73;21171;-81
2022/02/17 05:04:00;;;;;;;0.10;0.10;;;12.30;99.90;;;;;;1951570;73;21035;-80
2022/02/17 05:06:29;;;;;;;1.75;0.10;;;12.10;99.90;;;;;;1917222;73;21066;-80
2022/02/17 05:08:56;;;;;;;0.10;0.10;;;12.10;99.90;;;;;;1952075;73;21078;-78
2022/02/17 05:11:24;;;;;;;0.20;0.10;;;12.10;99.90;;;;;;1951664;72;21117;-80
2022/02/17 05:13:51;;;;;;;0.40;0.10;;;12.10;99.90;;;;;;1951626;73;21091;-80
2022/02/17 05:16:18;;;;;;;0.17;0.17;;;12.20;99.90;;;;;;1952453;73;21062;-80
2022/02/17 05:18:46;;;;;;;0.62;0.10;;;12.20;99.90;;;;;;1952829;73;21169;-82
2022/02/17 05:21:16;;;;;;;0.55;0.10;;;12.30;99.90;;;;;;1952087;73;21493;-81
2022/02/17 05:23:43;;;;;;;0.15;0.10;;;12.20;99.90;;;;;;1951631;73;21124;-81
2022/02/17 05:26:12;;;;;;;0.10;0.10;;;12.10;99.90;;;;;;1952416;73;21070;-78
2022/02/17 05:28:39;;;;;;;0.10;0.10;;;12.10;99.90;;;;;;1952175;73;21131;-80
2022/02/17 05:31:07;;;;;;;0.10;0.10;;;12.10;99.90;;;;;;1950571;73;21039;-79
2022/02/17 05:33:34;;;;;;;1.40;0.10;;;12.20;99.90;;;;;;1950719;73;21215;-80
2022/02/17 05:36:01;;;;;;;0.25;0.15;;;12.30;99.90;;;;;;1952579;73;21197;-80
2022/02/17 05:38:29;;;;;;;0.10;0.10;;;12.40;99.90;;;;;;1951019;73;21067;-80
2022/02/17 05:40:56;;;;;;;0.10;0.10;;;12.40;99.90;;;;;;1951517;73;21039;-79
2022/02/17 05:43:23;;;;;;;0.20;0.20;;;12.50;99.90;;;;;;1951464;73;21144;-78
2022/02/17 05:45:53;;;;;;;0.55;0.13;;;12.50;99.90;;;;;;1950348;73;21506;-78
2022/02/17 05:48:19;;;;;;;0.10;0.10;;;12.50;99.90;;;;;;1952792;72;21095;-79
2022/02/17 05:50:47;;;;;;;0.17;0.17;;;12.50;99.90;;;;;;1951365;73;21070;-78
2022/02/17 05:53:14;;;;;;;0.60;0.35;;;12.60;99.90;;;;;;1951255;73;21113;-78
2022/02/17 05:55:43;;;;;;;0.40;0.30;;;12.60;99.90;;;;;;1953532;73;21138;-78
2022/02/17 05:58:10;;;;;;;0.13;0.13;;;12.70;99.90;;;;;;1956360;73;21032;-77
2022/02/17 06:00:40;;;;;;;0.57;0.40;;;12.80;99.90;;;;;;1956420;73;21095;-76
2022/02/17 06:03:07;;;;;;;0.53;0.30;;;12.80;99.90;;;;;;1952927;71;21136;-78
2022/02/17 06:05:36;;;;;;;0.98;0.45;;;12.80;99.90;;;;;;1951410;73;21139;-80
2022/02/17 06:08:05;;;;;;;0.30;0.30;;;12.80;99.90;;;;;;1952004;73;21047;-78
2022/02/17 06:10:32;;;;;;;1.25;0.45;;;12.80;99.90;;;;;;1953293;73;21166;-80
2022/02/17 06:12:59;;;;;;;1.62;0.45;;;12.80;99.90;;;;;;1953528;73;21074;-79
2022/02/17 06:15:27;;;;;;;1.55;0.57;;;12.80;99.90;;;;;;1952586;73;21034;-78
2022/02/17 06:17:54;;;;;;;2.17;0.60;;;12.80;99.90;;;;;;1952333;73;21144;-78
2022/02/17 06:20:22;;;;;;;3.95;0.68;;;12.90;99.90;;;;;;1951517;73;21139;-78
2022/02/17 06:22:50;;;;;;;3.15;0.62;;;12.80;99.90;;;;;;1951918;73;21074;-78
2022/02/17 06:25:19;;;;;;;2.25;0.82;;;12.80;99.90;;;;;;1951568;73;21074;-77
2022/02/17 06:27:46;;;;;;;1.60;0.80;;;12.80;99.90;;;;;;1951582;73;21132;-81
2022/02/17 06:30:14;;;;;;;2.17;0.78;;;12.80;99.90;;;;;;1952554;73;21293;-76
2022/02/17 06:32:46;;;;;;;3.10;0.80;;;12.70;99.90;;;;;;1952486;73;21531;-79
2022/02/17 06:35:13;;;;;;;4.22;0.80;;;12.70;99.90;;;;;;1951763;73;21092;-79
2022/02/17 06:37:41;;;;;;;3.83;0.75;;;12.60;99.90;;;;;;1951661;73;21153;-79
2022/02/17 06:40:09;;;;;;;5.28;0.90;;;12.50;99.90;;;;;;1951848;73;21462;-81
2022/02/17 06:42:37;;;;;;;4.00;0.95;;;12.50;99.90;;;;;;1950761;73;21144;-81
2022/02/17 06:45:04;;;;;;;5.37;0.85;;;12.40;99.90;;;;;;1952040;73;21105;-81
2022/02/17 06:47:32;;;;;;;4.35;0.88;;;12.40;99.90;;;;;;1952123;73;21140;-78
2022/02/17 06:49:59;;;;;;;3.77;0.90;;;12.30;99.90;;;;;;1952021;73;21148;-79
2022/02/17 06:52:26;;;;;;;4.78;1.15;;;12.20;99.90;;;;;;1952541;73;21039;-80
2022/02/17 06:54:53;;;;;;;2.92;1.07;;;12.20;99.90;;;;;;1952942;73;21034;-83
2022/02/17 06:57:22;;;;;;;8.35;1.10;;;12.20;99.90;;;;;;1952757;73;21140;-83
2022/02/17 06:59:56;;;;;;;3.55;0.95;;;12.20;99.90;;;;;;1951314;73;21086;-77
2022/02/17 07:02:24;;;;;;;4.15;1.07;;;12.20;99.90;;;;;;1952170;73;21213;-80
2022/02/17 07:04:51;;;;;;;7.40;1.57;;;12.20;99.90;;;;;;1950811;73;21135;-78
2022/02/17 07:07:19;;;;;;;5.47;1.30;;;12.20;99.90;;;;;;1950205;73;21132;-79
2022/02/17 07:09:46;;;;;;;8.98;1.60;;;12.10;99.90;;;;;;1951318;73;21062;-80
2022/02/17 07:12:18;;;;;;;10.78;2.20;;;12.20;99.90;;;;;;1951969;73;21079;-77
2022/02/17 07:14:45;;;;;;;5.83;1.60;;;12.10;99.90;;;;;;1953036;73;21087;-79
2022/02/17 07:17:12;;;;;;;6.58;1.50;;;12.10;99.90;;;;;;1951958;73;21074;-79
2022/02/17 07:19:41;;;;;;;4.03;1.30;;;12.10;99.90;;;;;;1952280;73;21128;-80
2022/02/17 07:22:08;;;;;;;8.68;1.67;;;12.10;99.90;;;;;;1952906;73;21057;-79
2022/02/17 07:24:36;;;;;;;4.53;1.72;;;12.10;99.90;;;;;;1952613;73;21080;-80
2022/02/17 07:27:03;;;;;;;6.65;1.47;;;12.00;99.90;;;;;;1951497;73;21070;-79
2022/02/17 07:29:31;;;;;;;7.30;1.37;;;12.00;99.90;;;;;;1957660;73;21113;-87
2022/02/17 07:31:58;;;;;;;6.45;1.60;;;11.90;99.90;;;;;;1951803;73;21121;-82
2022/02/17 07:34:25;;;;;;;6.50;1.20;;;11.90;99.90;;;;;;1950528;73;21085;-81
2022/02/17 07:36:53;;;;;;;7.72;1.70;;;11.80;99.90;;;;;;1916786;73;21193;-79
2022/02/17 07:39:20;;;;;;;4.05;1.37;;;11.90;99.90;;;;;;1952512;73;21149;-81
2022/02/17 07:41:48;;;;;;;7.75;1.67;;;11.90;99.90;;;;;;1951384;73;21082;-80
2022/02/17 07:44:15;;;;;;;7.80;1.82;;;11.90;99.90;;;;;;1951177;73;21109;-80
2022/02/17 07:46:42;;;;;;;5.78;1.52;;;11.90;99.90;;;;;;1951569;73;21144;-80
2022/02/17 07:49:10;;;;;;;9.50;1.55;;;11.90;99.90;;;;;;1956291;73;21152;-81
2022/02/17 07:51:39;;;;;;;6.70;1.25;;;11.90;99.90;;;;;;1952242;73;21023;-79
2022/02/17 07:54:06;;;;;;;5.30;1.35;;;11.90;99.90;;;;;;1924002;73;21516;-80
2022/02/17 07:56:33;;;;;;;9.83;1.67;;;11.90;99.90;;;;;;1952076;73;21246;-80
2022/02/17 07:59:01;;;;;;;6.08;1.30;;;12.00;99.90;;;;;;1951410;73;21466;-80
2022/02/17 08:01:28;;;;;;;6.05;1.45;;;12.00;99.90;;;;;;1952319;73;21135;-80
2022/02/17 08:03:55;;;;;;;4.92;1.17;;;12.00;99.90;;;;;;1951325;72;21133;-80
2022/02/17 08:06:23;;;;;;;5.12;1.47;;;11.90;99.90;;;;;;1909454;73;21073;-78
2022/02/17 08:08:51;;;;;;;7.72;1.45;;;11.90;99.90;;;;;;1952424;73;21056;-81
2022/02/17 08:11:19;;;;;;;5.97;1.25;;;11.90;99.90;;;;;;1952884;73;21031;-80
2022/02/17 08:13:46;;;;;;;5.30;1.30;;;12.00;99.90;;;;;;1951142;73;21544;-80
2022/02/17 08:16:13;;;;;;;8.05;1.45;;;12.10;99.90;;;;;;1952116;73;21031;-80
2022/02/17 08:18:41;;;;;;;3.83;1.30;;;12.20;99.90;;;;;;1951596;73;21446;-79
2022/02/17 08:21:08;;;;;;;10.70;1.85;;;12.40;99.90;;;;;;1950621;73;21544;-80
2022/02/17 08:23:36;;;;;;;5.30;1.67;;;12.40;99.90;;;;;;1952610;73;21121;-81
2022/02/17 08:26:04;;;;;;;9.65;1.50;;;12.40;99.90;;;;;;1947125;71;21163;-80
2022/02/17 08:28:31;;;;;;;5.47;1.50;;;12.50;99.90;;;;;;1952157;73;21448;-82
2022/02/17 08:30:58;;;;;;;7.62;1.72;;;12.60;99.90;;;;;;1951725;73;21066;-78
2022/02/17 08:33:26;;;;;;;7.12;2.20;;;12.60;99.90;;;;;;1952427;73;21431;-79
2022/02/17 08:35:53;;;;;;;8.00;1.40;;;12.70;99.90;;;;;;1950723;73;21090;-79
2022/02/17 08:38:20;;;;;;;7.05;2.02;;;12.70;99.90;;;;;;1951859;73;21183;-79
2022/02/17 08:40:48;;;;;;;8.25;1.92;;;12.70;99.90;;;;;;1950748;73;21458;-79
2022/02/17 08:43:18;;;;;;;4.55;1.35;;;12.80;99.90;;;;;;1951444;73;21205;-78
2022/02/17 08:45:45;;;;;;;6.60;1.92;;;12.80;99.90;;;;;;1953195;73;21498;-78
2022/02/17 08:48:14;;;;;;;8.73;2.37;;;12.80;99.90;;;;;;1950761;73;21066;-79
2022/02/17 08:50:43;;;;;;;9.75;2.35;;;12.80;99.90;;;;;;1954384;73;21120;-78
2022/02/17 08:53:10;;;;;;;12.50;2.25;;;12.80;99.90;;;;;;1951055;73;21097;-79
2022/02/17 08:55:37;;;;;;;6.60;1.87;;;12.90;99.90;;;;;;1952112;73;21123;-79
2022/02/17 08:58:05;;;;;;;10.30;2.75;;;12.90;99.90;;;;;;1951749;71;21152;-80
2022/02/17 09:00:32;;;;;;;14.90;2.20;;;12.80;99.90;;;;;;1951882;73;21105;-78
2022/02/17 09:02:59;;;;;;;5.65;1.70;;;12.80;99.90;;;;;;1951807;73;21070;-77
2022/02/17 09:05:33;;;;;;;9.13;2.10;;;12.80;99.90;;;;;;1952005;73;21058;-84
2022/02/17 09:08:00;;;;;;;6.00;1.80;;;13.00;99.90;;;;;;1951216;73;21160;-81
2022/02/17 09:10:28;;;;;;;12.60;2.22;;;13.10;99.90;;;;;;1952209;73;21054;-80
2022/02/17 09:12:55;;;;;;;11.03;2.22;;;13.10;99.90;;;;;;1951070;73;21070;-79
2022/02/17 09:15:22;;;;;;;10.13;2.90;;;13.20;99.90;;;;;;1951307;73;21058;-81
2022/02/17 09:17:49;;;;;;;11.65;2.22;;;13.30;99.90;;;;;;1952016;73;21039;-80
2022/02/17 09:20:17;;;;;;;6.33;2.00;;;13.30;99.90;;;;;;1950647;73;21141;-81
2022/02/17 09:22:44;;;;;;;8.28;2.00;;;13.30;99.90;;;;;;1952098;73;21078;-82
2022/02/17 09:25:11;;;;;;;15.00;2.45;;;13.20;99.90;;;;;;1953898;73;21132;-79
2022/02/17 09:27:39;;;;;;;12.25;2.55;;;13.50;99.90;;;;;;1950880;73;21096;-80
2022/02/17 09:30:07;;;;;;;7.80;2.05;;;13.70;99.90;;;;;;1959638;73;21501;-79
2022/02/17 09:32:34;;;;;;;8.30;2.52;;;13.70;99.90;;;;;;1952133;73;21124;-79
2022/02/17 09:35:02;;;;;;;9.50;2.80;;;13.70;99.90;;;;;;1951931;73;21257;-80
2022/02/17 09:37:29;;;;;;;7.92;2.40;;;13.90;99.90;;;;;;1950454;73;21078;-78
2022/02/17 09:39:56;;;;;;;7.45;2.17;;;14.10;99.90;;;;;;1952205;73;21443;-79
2022/02/17 09:42:24;;;;;;;4.90;1.92;;;14.00;99.90;;;;;;1951589;73;21070;-79
2022/02/17 09:44:51;;;;;;;18.95;3.85;;;14.00;99.90;;;;;;1950351;73;21514;-78
2022/02/17 09:47:18;;;;;;;9.98;2.65;;;13.90;99.90;;;;;;1952166;73;21151;-78
2022/02/17 09:49:47;;;;;;;8.58;2.30;;;14.00;99.90;;;;;;1951532;71;21058;-76
2022/02/17 09:52:16;;;;;;;4.90;1.95;;;14.10;99.90;;;;;;1953117;73;21434;-77
2022/02/17 09:54:43;;;;;;;8.78;2.50;;;14.30;99.90;;;;;;1920940;73;21140;-79
2022/02/17 09:57:14;;;;;;;8.68;2.15;;;14.20;99.90;;;;;;1953641;73;21062;-77
2022/02/17 09:59:42;;;;;;;6.45;2.25;;;13.90;99.90;;;;;;1915636;73;21075;-81
2022/02/17 10:02:12;;;;;;;9.00;2.60;;;13.50;99.90;;;;;;1952743;73;21136;-81
2022/02/17 10:04:38;;;;;;;7.85;2.58;;;13.40;99.90;;;;;;1952535;72;21468;-80
2022/02/17 10:07:10;;;;;;;9.20;2.33;;;13.30;99.90;;;;;;1951918;73;21066;-81
2022/02/17 10:09:42;;;;;;;8.50;2.52;;;13.00;99.90;;;;;;1952251;73;21162;-81
2022/02/17 10:12:11;;;;;;;14.13;2.60;;;12.80;99.90;;;;;;1952326;73;21454;-80
2022/02/17 10:14:39;;;;;;;8.38;2.42;;;12.80;99.90;;;;;;1952785;73;21046;-81
2022/02/17 10:17:14;;;;;;;15.10;2.80;;;13.00;99.90;;;;;;1951277;73;21063;-81
2022/02/17 10:19:52;;;;;;;7.80;2.50;;;13.20;99.90;;;;;;1933128;73;21120;-81
2022/02/17 10:22:23;;;;;;;7.42;2.25;;;13.60;99.90;;;;;;1949859;72;21499;-79
2022/02/17 10:24:53;;;;;;;7.58;2.17;;;13.60;99.90;;;;;;1946122;72;21114;-77
2022/02/17 10:27:25;;;;;;;12.10;2.75;;;13.50;99.90;;;;;;1952339;73;21066;-78
2022/02/17 10:30:14;;;;;;;8.70;2.22;;;13.20;99.90;;;;;;1952468;73;21102;-78
2022/02/17 10:32:55;;;;;;;12.30;2.75;;;12.90;99.90;;;;;;1950291;73;21071;-80
2022/02/17 10:35:22;;;;;;;15.35;3.08;;;12.70;99.90;;;;;;1952524;73;21086;-78
2022/02/17 10:37:58;;;;;;;10.53;2.60;;;13.00;99.90;;;;;;1927825;73;21004;-77
2022/02/17 10:40:27;;;;;;;10.05;2.77;;;13.20;99.90;;;;;;1953005;73;21806;-77
2022/02/17 10:42:59;;;;;;;13.53;3.25;;;13.00;99.90;;;;;;1955750;73;21034;-75
2022/02/17 10:45:27;;;;;;;13.03;2.85;;;13.20;99.90;;;;;;1915380;73;21155;-77
2022/02/17 10:47:56;;;;;;;12.78;2.42;;;13.50;99.90;;;;;;1966201;73;21058;-81
2022/02/17 10:50:23;;;;;;;15.70;2.77;;;12.90;99.90;;;;;;1932725;73;21107;-77
2022/02/17 10:53:20;;;;;;;9.10;2.62;;;12.60;99.90;;;;;;1967043;71;21528;-78
2022/02/17 10:55:58;;;;;;;16.02;2.85;;;12.60;99.90;;;;;;1952732;73;21058;-75
2022/02/17 10:58:31;;;;;;;9.28;2.40;;;12.60;99.90;;;;;;1952136;73;21066;-76
2022/02/17 11:00:57;;;;;;;9.60;1.87;;;12.80;99.90;;;;;;1949810;73;21234;-79
2022/02/17 11:03:33;;;;;;;13.58;2.98;;;12.60;99.90;;;;;;1953444;73;21074;-76
2022/02/17 11:05:59;;;;;;;9.70;2.83;;;12.60;99.90;;;;;;1951942;73;21080;-76
2022/02/17 11:08:26;;;;;;;10.00;2.80;;;13.00;99.90;;;;;;1951469;73;21128;-79
2022/02/17 11:11:06;;;;;;;11.50;2.70;;;13.40;99.90;;;;;;1958176;73;21161;-76
2022/02/17 11:13:36;;;;;;;16.75;3.02;;;13.70;99.90;;;;;;1954380;73;21095;-78
2022/02/17 11:16:07;;;;;;;24.98;3.35;;;13.50;99.90;;;;;;1957947;73;21074;-79
2022/02/17 11:18:34;;;;;;;17.82;2.65;;;13.50;99.90;;;;;;1952150;72;21229;-78
2022/02/17 11:21:03;;;;;;;13.22;2.70;;;14.30;99.90;;;;;;1956056;73;21078;-79
2022/02/17 11:23:37;;;;;;;8.05;2.20;;;14.60;99.90;;;;;;1953862;72;21099;-77
2022/02/17 11:26:26;;;;;;;10.60;2.50;;;14.30;99.90;;;;;;1927778;73;21128;-77
2022/02/17 11:28:54;;;;;;;9.90;2.17;;;14.60;99.90;;;;;;1951335;73;21074;-77
2022/02/17 11:31:21;;;;;;;8.08;2.37;;;14.90;99.90;;;;;;1953619;73;21043;-76
2022/02/17 11:33:57;;;;;;;11.08;2.85;;;14.70;99.90;;;;;;1952601;71;21063;-79
2022/02/17 11:36:30;;;;;;;10.75;2.90;;;14.20;99.90;;;;;;1955446;73;21023;-78
2022/02/17 11:38:59;;;;;;;8.75;2.37;;;13.70;99.90;;;;;;1952476;73;21181;-78
2022/02/17 11:41:31;;;;;;;11.00;2.65;;;13.60;99.90;;;;;;1947181;72;21090;-80
2022/02/17 11:44:16;;;;;;;10.70;2.67;;;13.30;99.90;;;;;;1951842;73;21102;-78
2022/02/17 11:46:48;;;;;;;8.78;2.95;;;13.50;99.90;;;;;;1960801;73;21103;-79
2022/02/17 11:49:30;;;;;;;12.07;2.87;;;13.30;99.90;;;;;;1952997;73;21101;-79
2022/02/17 11:52:22;;;;;;;10.80;2.83;;;13.30;99.90;;;;;;1950697;73;21070;-77
2022/02/17 11:55:13;;;;;;;18.77;3.50;;;13.30;99.90;;;;;;1948177;72;21475;-78
2022/02/17 11:57:47;;;;;;;12.78;3.08;;;13.90;99.90;;;;;;1958847;73;21063;-77
2022/02/17 12:00:35;;;;;;;11.53;3.10;;;14.50;99.90;;;;;;1951635;73;21153;-77
2022/02/17 12:03:02;;;;;;;10.18;3.12;;;14.20;99.90;;;;;;1953288;73;21079;-77
2022/02/17 12:05:30;;;;;;;11.20;3.20;;;14.10;99.90;;;;;;1952398;73;21111;-78
2022/02/17 12:08:19;;;;;;;15.83;4.45;;;14.70;99.90;;;;;;1952440;73;21118;-77
2022/02/17 12:10:47;;;;;;;17.10;3.05;;;14.90;99.90;;;;;;1953647;73;21762;-77
2022/02/17 12:13:20;;;;;;;11.68;3.90;;;15.30;99.90;;;;;;1952556;73;21255;-76
2022/02/17 12:15:49;;;;;;;13.88;4.17;;;15.10;99.90;;;;;;1947591;73;21075;-77
2022/02/17 12:18:19;;;;;;;10.78;3.10;;;15.20;99.90;;;;;;1952302;72;21132;-77
2022/02/17 12:20:48;;;;;;;17.50;3.60;;;14.70;99.90;;;;;;1951976;73;21478;-80
2022/02/17 12:23:17;;;;;;;12.60;3.37;;;14.70;99.90;;;;;;1925415;73;21086;-80
2022/02/17 12:25:47;;;;;;;12.20;3.37;;;14.80;99.90;;;;;;1953931;73;21191;-81
2022/02/17 12:28:18;;;;;;;10.78;3.55;;;14.70;99.90;;;;;;1952419;73;21082;-79
2022/02/17 12:30:47;;;;;;;12.25;3.17;;;14.80;99.90;;;;;;1952417;73;21059;-77
2022/02/17 12:33:27;;;;;;;9.68;3.22;;;14.70;99.90;;;;;;1952545;73;21042;-77
2022/02/17 12:36:00;;;;;;;8.80;2.77;;;14.30;99.90;;;;;;1952527;73;21039;-81
2022/02/17 12:38:32;;;;;;;16.25;2.95;;;14.80;99.90;;;;;;1953184;73;21515;-79
2022/02/17 12:41:01;;;;;;;12.43;3.55;;;15.20;99.90;;;;;;1951850;73;21124;-79
2022/02/17 12:43:33;;;;;;;13.58;3.20;;;15.00;99.90;;;;;;1952294;73;21528;-81
2022/02/17 12:46:04;;;;;;;14.05;3.80;;;15.40;99.90;;;;;;1953049;73;21172;-81
2022/02/17 12:48:36;;;;;;;11.35;3.12;;;15.40;99.90;;;;;;1927177;73;20994;-82
2022/02/17 12:51:03;;;;;;;9.73;2.98;;;15.50;99.90;;;;;;1951080;73;21066;-83
2022/02/17 12:53:46;;;;;;;15.08;3.17;;;15.30;99.90;;;;;;1957000;73;21166;-83
2022/02/17 12:56:22;;;;;;;10.13;3.00;;;15.30;99.90;;;;;;1950912;73;21065;-80